Time;durP1;ratioP1;P1;durP2;ratioP2;P2;SDS_P1;SDS_P2;PMS_P1;PMS_P2;Temp;Humidity;BMP_temperature;BMP_pressure;BME280_temperature;BME280_humidity;BME280_pressure;Samples;Min_cycle;Max_cycle;Signal;HPM_P1;HPM_P2
2024/04/11 00:01:34;;;;;;;3.50;2.30;;;9.40;99.90;;;;;;5178017;27;20511;-64
2024/04/11 00:03:59;;;;;;;3.17;2.60;;;9.40;99.90;;;;;;5186954;27;20454;-63
2024/04/11 00:06:25;;;;;;;3.40;2.70;;;9.40;99.90;;;;;;5180207;27;20242;-63
2024/04/11 00:08:50;;;;;;;4.50;3.23;;;9.30;99.90;;;;;;5198727;27;20243;-62
2024/04/11 00:11:18;;;;;;;5.13;3.80;;;9.30;99.90;;;;;;5173425;27;20267;-62
2024/04/11 00:13:44;;;;;;;5.30;3.00;;;9.40;99.90;;;;;;5203655;27;20284;-63
2024/04/11 00:16:11;;;;;;;8.33;3.40;;;9.30;99.90;;;;;;5133261;27;20501;-62
2024/04/11 00:18:39;;;;;;;5.67;2.80;;;9.30;99.90;;;;;;5199013;27;20473;-62
2024/04/11 00:21:05;;;;;;;4.60;2.60;;;9.40;99.90;;;;;;5195776;27;20598;-62
2024/04/11 00:23:31;;;;;;;8.87;2.70;;;9.30;99.90;;;;;;5202646;27;20587;-62
2024/04/11 00:25:58;;;;;;;3.70;2.77;;;9.30;99.90;;;;;;5204641;27;21040;-63
2024/04/11 00:28:25;;;;;;;3.47;2.60;;;9.30;99.90;;;;;;5206979;27;20326;-63
2024/04/11 00:30:52;;;;;;;4.43;3.33;;;9.40;99.90;;;;;;5207902;27;20517;-63
2024/04/11 00:33:17;;;;;;;3.20;2.73;;;9.30;99.90;;;;;;5208075;27;20465;-63
2024/04/11 00:35:49;;;;;;;5.43;3.30;;;9.20;99.90;;;;;;5208073;27;20814;-63
2024/04/11 00:38:19;;;;;;;4.60;3.30;;;9.10;99.90;;;;;;5194890;27;20529;-62
2024/04/11 00:40:59;;;;;;;3.10;2.80;;;9.10;99.90;;;;;;5220197;27;20531;-62
2024/04/11 00:43:32;;;;;;;4.50;3.20;;;9.20;99.90;;;;;;5216975;27;20464;-63
2024/04/11 00:45:59;;;;;;;8.03;3.07;;;9.30;99.90;;;;;;5165442;27;20558;-63
2024/04/11 00:48:25;;;;;;;5.40;3.47;;;9.20;99.90;;;;;;5188263;27;20509;-62
2024/04/11 00:50:52;;;;;;;3.00;2.80;;;9.10;99.90;;;;;;5202358;27;20482;-63
2024/04/11 00:53:21;;;;;;;5.57;3.47;;;9.00;99.90;;;;;;5207786;27;20250;-62
2024/04/11 00:55:47;;;;;;;5.27;3.20;;;9.00;99.90;;;;;;5206707;27;21005;-61
2024/04/11 00:58:13;;;;;;;6.83;3.23;;;9.00;99.90;;;;;;5207926;27;20506;-62
2024/04/11 01:00:42;;;;;;;4.37;3.00;;;9.00;99.90;;;;;;5207329;27;20937;-62
2024/04/11 01:03:08;;;;;;;3.73;3.20;;;9.00;99.90;;;;;;5207955;27;20223;-63
2024/04/11 01:05:34;;;;;;;5.07;3.47;;;9.00;99.90;;;;;;5177781;27;20539;-61
2024/04/11 01:08:07;;;;;;;4.57;3.93;;;8.90;99.90;;;;;;5184466;27;20838;-63
2024/04/11 01:10:37;;;;;;;4.20;3.30;;;8.80;99.90;;;;;;5199570;27;20564;-63
2024/04/11 01:13:05;;;;;;;4.50;3.53;;;8.80;99.90;;;;;;5203760;27;20854;-62
2024/04/11 01:15:34;;;;;;;5.80;3.30;;;8.80;99.90;;;;;;5204774;27;20996;-62
2024/04/11 01:18:00;;;;;;;4.63;3.10;;;8.70;99.90;;;;;;5181728;27;20481;-63
2024/04/11 01:20:26;;;;;;;4.17;3.10;;;8.70;99.90;;;;;;5200682;27;20470;-60
2024/04/11 01:22:52;;;;;;;8.70;3.60;;;8.60;99.90;;;;;;5174501;27;20527;-61
2024/04/11 01:25:18;;;;;;;5.33;3.60;;;8.80;99.90;;;;;;5202817;27;20461;-62
2024/04/11 01:27:44;;;;;;;3.30;3.00;;;8.70;99.90;;;;;;5190450;27;20472;-62
2024/04/11 01:30:11;;;;;;;3.50;3.20;;;8.60;99.90;;;;;;5170322;27;21253;-62
2024/04/11 01:32:40;;;;;;;5.00;3.40;;;8.60;99.90;;;;;;5176113;27;20889;-64
2024/04/11 01:35:08;;;;;;;6.50;3.73;;;8.70;99.90;;;;;;5193248;27;20631;-62
2024/04/11 01:37:35;;;;;;;8.53;3.53;;;8.70;99.90;;;;;;5192996;27;20478;-63
2024/04/11 01:40:02;;;;;;;4.53;4.13;;;8.60;99.90;;;;;;5189120;27;20632;-63
2024/04/11 01:42:27;;;;;;;4.80;3.97;;;8.60;99.90;;;;;;5184610;27;21294;-63
2024/04/11 01:44:54;;;;;;;4.47;3.23;;;8.50;99.90;;;;;;5198276;27;20543;-63
2024/04/11 01:47:20;;;;;;;3.80;2.83;;;8.50;99.90;;;;;;5181015;27;20238;-63
2024/04/11 01:49:46;;;;;;;4.67;3.90;;;8.50;99.90;;;;;;5194981;27;20516;-61
2024/04/11 01:52:12;;;;;;;4.33;3.87;;;8.50;99.90;;;;;;5205597;27;20276;-63
2024/04/11 01:54:41;;;;;;;3.83;3.40;;;8.50;99.90;;;;;;5200331;27;20726;-62
2024/04/11 01:57:08;;;;;;;5.10;4.00;;;8.40;99.90;;;;;;5200453;27;20591;-64
2024/04/11 01:59:34;;;;;;;4.57;4.00;;;8.40;99.90;;;;;;5200181;27;20495;-63
2024/04/11 02:02:01;;;;;;;4.00;3.60;;;8.50;99.90;;;;;;5203687;27;20473;-62
2024/04/11 02:04:30;;;;;;;7.03;3.70;;;8.50;99.90;;;;;;5198346;27;20534;-62
2024/04/11 02:06:57;;;;;;;5.37;4.00;;;8.50;99.90;;;;;;5193784;27;20566;-62
2024/04/11 02:09:23;;;;;;;8.50;4.20;;;8.50;99.90;;;;;;5188721;27;20465;-63
2024/04/11 02:11:53;;;;;;;9.00;4.10;;;8.40;99.90;;;;;;5202790;27;20475;-64
2024/04/11 02:14:22;;;;;;;5.30;3.77;;;8.40;99.90;;;;;;5205132;27;20522;-64
2024/04/11 02:16:49;;;;;;;5.30;4.03;;;8.40;99.90;;;;;;5207313;27;20525;-64
2024/04/11 02:19:16;;;;;;;4.50;3.50;;;8.40;99.90;;;;;;5188501;27;20485;-64
2024/04/11 02:21:41;;;;;;;5.30;3.97;;;8.40;99.90;;;;;;5207933;27;20529;-63
2024/04/11 02:24:08;;;;;;;5.10;3.60;;;8.40;99.90;;;;;;5212859;27;20785;-64
2024/04/11 02:26:34;;;;;;;6.27;5.10;;;8.40;99.90;;;;;;5195176;27;20690;-63
2024/04/11 02:29:04;;;;;;;3.70;3.40;;;8.30;99.90;;;;;;5204750;27;20849;-63
2024/04/11 02:31:31;;;;;;;4.63;3.73;;;8.30;99.90;;;;;;5202847;27;20476;-63
2024/04/11 02:34:00;;;;;;;5.97;4.30;;;8.30;99.90;;;;;;5203515;27;20453;-64
2024/04/11 02:36:29;;;;;;;4.70;4.30;;;8.30;99.90;;;;;;5207038;27;20473;-63
2024/04/11 02:38:59;;;;;;;6.90;4.27;;;8.30;99.90;;;;;;5203903;27;20531;-63
2024/04/11 02:41:27;;;;;;;13.23;4.50;;;8.20;99.90;;;;;;5206196;27;20527;-64
2024/04/11 02:43:53;;;;;;;8.07;4.23;;;8.20;99.90;;;;;;5206591;27;20568;-64
2024/04/11 02:46:19;;;;;;;4.47;4.07;;;8.10;99.90;;;;;;5200352;27;20468;-63
2024/04/11 02:48:46;;;;;;;6.23;3.90;;;8.20;99.90;;;;;;5193037;27;20532;-62
2024/04/11 02:51:13;;;;;;;9.30;4.80;;;8.20;99.90;;;;;;5189255;27;21027;-64
2024/04/11 02:53:39;;;;;;;7.13;4.87;;;8.20;99.90;;;;;;5193224;27;20907;-62
2024/04/11 02:56:08;;;;;;;5.53;4.43;;;8.20;99.90;;;;;;5192086;27;20512;-62
2024/04/11 02:58:34;;;;;;;5.63;5.03;;;8.10;99.90;;;;;;5183541;27;20568;-62
2024/04/11 03:01:06;;;;;;;6.13;4.63;;;8.10;99.90;;;;;;5185426;27;20530;-64
2024/04/11 03:03:35;;;;;;;5.00;4.30;;;8.00;99.90;;;;;;5189548;27;20927;-63
2024/04/11 03:06:06;;;;;;;12.17;4.80;;;8.00;99.90;;;;;;5197726;27;20818;-64
2024/04/11 03:08:33;;;;;;;5.27;4.77;;;8.00;99.90;;;;;;5184047;27;20834;-64
2024/04/11 03:11:01;;;;;;;8.23;6.13;;;7.90;99.90;;;;;;5190737;27;20472;-63
2024/04/11 03:13:27;;;;;;;8.13;4.67;;;7.90;99.90;;;;;;5175964;27;20647;-62
2024/04/11 03:15:59;;;;;;;8.00;4.67;;;7.90;99.90;;;;;;5202372;27;21152;-64
2024/04/11 03:18:25;;;;;;;5.97;4.90;;;7.90;99.90;;;;;;5205226;27;20639;-63
2024/04/11 03:20:54;;;;;;;9.90;5.23;;;7.90;99.90;;;;;;5190659;27;20556;-63
2024/04/11 03:23:21;;;;;;;6.23;5.10;;;7.80;99.90;;;;;;5201985;27;20990;-63
2024/04/11 03:25:47;;;;;;;8.83;6.20;;;7.80;99.90;;;;;;5203150;27;20983;-62
2024/04/11 03:28:14;;;;;;;14.23;6.83;;;7.90;99.90;;;;;;5205848;27;20520;-63
2024/04/11 03:30:41;;;;;;;13.00;6.43;;;7.90;99.90;;;;;;5205531;27;20712;-63
2024/04/11 03:33:07;;;;;;;8.40;5.73;;;7.80;99.90;;;;;;5205713;27;21078;-63
2024/04/11 03:35:32;;;;;;;10.40;7.20;;;7.80;99.90;;;;;;5191470;27;21165;-61
2024/04/11 03:37:58;;;;;;;13.43;6.73;;;7.80;99.90;;;;;;5184300;27;20480;-63
2024/04/11 03:40:24;;;;;;;9.63;7.60;;;7.70;99.90;;;;;;5185822;27;20747;-62
2024/04/11 03:42:50;;;;;;;9.50;6.47;;;7.70;99.90;;;;;;5194259;27;20588;-63
2024/04/11 03:45:22;;;;;;;9.50;7.70;;;7.70;99.90;;;;;;5199885;27;21036;-63
2024/04/11 03:47:49;;;;;;;12.73;7.27;;;7.80;99.90;;;;;;5202480;27;20275;-60
2024/04/11 03:50:14;;;;;;;10.13;7.40;;;7.80;99.90;;;;;;5193967;27;20584;-63
2024/04/11 03:52:41;;;;;;;7.90;6.73;;;7.70;99.90;;;;;;5208649;27;20463;-63
2024/04/11 03:55:08;;;;;;;12.90;6.73;;;7.80;99.90;;;;;;5208509;27;20516;-63
2024/04/11 03:57:35;;;;;;;12.63;8.70;;;7.80;99.90;;;;;;5208844;27;20465;-63
2024/04/11 04:00:07;;;;;;;10.60;8.03;;;7.80;99.90;;;;;;5189370;27;20525;-63
2024/04/11 04:02:33;;;;;;;15.13;8.07;;;7.80;99.90;;;;;;5204503;27;20525;-63
2024/04/11 04:04:59;;;;;;;13.43;7.60;;;7.80;99.90;;;;;;5204267;27;20460;-62
2024/04/11 04:07:28;;;;;;;11.23;6.93;;;7.80;99.90;;;;;;5205386;27;20519;-63
2024/04/11 04:09:54;;;;;;;10.03;7.60;;;7.80;99.90;;;;;;5207647;27;20235;-63
2024/04/11 04:12:23;;;;;;;8.37;6.30;;;7.90;99.90;;;;;;5206022;27;20616;-62
2024/04/11 04:14:49;;;;;;;15.90;7.40;;;7.80;99.90;;;;;;5208105;27;20516;-63
2024/04/11 04:17:16;;;;;;;11.80;7.70;;;7.90;99.90;;;;;;5190835;27;20527;-63
2024/04/11 04:19:42;;;;;;;8.10;7.30;;;7.90;99.90;;;;;;5196156;27;20906;-63
2024/04/11 04:22:13;;;;;;;8.07;6.07;;;7.90;99.90;;;;;;5188328;27;20586;-63
2024/04/11 04:24:39;;;;;;;10.87;6.90;;;7.90;99.90;;;;;;5198586;27;20580;-63
2024/04/11 04:27:05;;;;;;;8.83;6.17;;;7.90;99.90;;;;;;5204489;27;20455;-63
2024/04/11 04:29:31;;;;;;;8.97;6.00;;;7.90;99.90;;;;;;5206111;27;21023;-63
2024/04/11 04:31:56;;;;;;;10.43;6.93;;;7.90;99.90;;;;;;5207439;27;20708;-63
2024/04/11 04:34:23;;;;;;;7.40;6.07;;;7.90;99.90;;;;;;5208126;27;20524;-63
2024/04/11 04:36:49;;;;;;;7.43;6.00;;;8.00;99.90;;;;;;5207850;27;20716;-62
2024/04/11 04:39:16;;;;;;;10.40;6.17;;;8.00;99.90;;;;;;5204433;27;20512;-62
2024/04/11 04:41:44;;;;;;;9.97;7.53;;;7.90;99.90;;;;;;5186913;27;20466;-62
2024/04/11 04:44:09;;;;;;;7.10;5.50;;;7.90;99.90;;;;;;5187549;27;20525;-63
2024/04/11 04:46:36;;;;;;;9.10;6.10;;;7.90;99.90;;;;;;5197858;27;20464;-63
2024/04/11 04:49:13;;;;;;;10.10;5.20;;;8.00;99.90;;;;;;5179713;27;20232;-62
2024/04/11 04:51:39;;;;;;;8.17;6.53;;;8.00;99.90;;;;;;5169953;27;20593;-62
2024/04/11 04:54:11;;;;;;;9.73;5.80;;;8.00;99.90;;;;;;5198448;27;20464;-63
2024/04/11 04:56:38;;;;;;;9.67;5.83;;;8.00;99.90;;;;;;5205668;27;20935;-62
2024/04/11 04:59:04;;;;;;;9.17;6.23;;;8.00;99.90;;;;;;5208391;27;20863;-63
2024/04/11 05:01:32;;;;;;;6.83;6.13;;;8.00;99.90;;;;;;5208784;27;20463;-63
2024/04/11 05:03:59;;;;;;;7.60;5.90;;;8.10;99.90;;;;;;5224734;27;20301;-62
2024/04/11 05:06:26;;;;;;;13.60;6.13;;;8.10;99.90;;;;;;5214899;27;20482;-62
2024/04/11 05:08:55;;;;;;;11.53;7.33;;;8.10;99.90;;;;;;5201403;27;20449;-63
2024/04/11 05:11:22;;;;;;;10.50;5.70;;;8.10;99.90;;;;;;5202211;27;21055;-61
2024/04/11 05:13:49;;;;;;;13.30;6.43;;;8.20;99.90;;;;;;5183273;27;20595;-63
2024/04/11 05:16:18;;;;;;;14.40;7.13;;;8.20;99.90;;;;;;5167094;27;20591;-63
2024/04/11 05:18:46;;;;;;;6.50;5.90;;;8.30;99.90;;;;;;5189968;27;20473;-60
2024/04/11 05:21:18;;;;;;;8.17;6.30;;;8.30;99.90;;;;;;5179118;27;20611;-63
2024/04/11 05:23:44;;;;;;;11.40;7.37;;;8.40;99.90;;;;;;5187600;27;20476;-63
2024/04/11 05:26:14;;;;;;;10.60;7.63;;;8.40;99.90;;;;;;5186956;27;20986;-63
2024/04/11 05:28:44;;;;;;;8.63;6.10;;;8.50;99.90;;;;;;5187888;27;20824;-63
2024/04/11 05:31:23;;;;;;;11.13;6.47;;;8.50;99.90;;;;;;5182712;27;20520;-63
2024/04/11 05:33:51;;;;;;;8.27;6.80;;;8.60;99.90;;;;;;5184017;27;20542;-63
2024/04/11 05:36:22;;;;;;;8.77;7.43;;;8.70;99.90;;;;;;5182452;27;20480;-63
2024/04/11 05:38:48;;;;;;;11.23;5.90;;;8.70;99.90;;;;;;5130401;27;20478;-61
2024/04/11 05:41:20;;;;;;;7.40;6.10;;;8.90;99.90;;;;;;5189180;27;20484;-64
2024/04/11 05:43:49;;;;;;;8.40;6.33;;;9.00;99.90;;;;;;5194926;27;20600;-64
2024/04/11 05:46:18;;;;;;;11.27;6.33;;;9.10;99.90;;;;;;5193480;27;22126;-63
2024/04/11 05:48:45;;;;;;;10.73;5.60;;;9.40;99.90;;;;;;5199574;27;20491;-63
2024/04/11 05:51:15;;;;;;;8.73;5.40;;;9.90;99.90;;;;;;5199037;27;20470;-62
2024/04/11 05:53:41;;;;;;;8.57;5.70;;;10.00;99.90;;;;;;5196851;27;20562;-62
2024/04/11 05:56:12;;;;;;;10.40;5.40;;;10.20;99.90;;;;;;5192022;27;20601;-61
2024/04/11 05:58:42;;;;;;;5.70;4.70;;;10.40;99.90;;;;;;5188735;27;20530;-62
2024/04/11 06:01:10;;;;;;;8.93;6.13;;;10.70;99.90;;;;;;5179148;27;20509;-61
2024/04/11 06:03:40;;;;;;;6.43;5.23;;;11.00;99.90;;;;;;5188672;27;20909;-62
2024/04/11 06:06:13;;;;;;;9.03;4.60;;;11.20;99.90;;;;;;5206161;27;20802;-63
2024/04/11 06:08:43;;;;;;;6.47;5.87;;;11.60;99.90;;;;;;5198057;27;20462;-63
2024/04/11 06:11:12;;;;;;;8.37;5.00;;;11.90;99.90;;;;;;5203713;27;20855;-63
2024/04/11 06:13:38;;;;;;;5.23;4.60;;;12.10;99.90;;;;;;5204900;27;20467;-64
2024/04/11 06:16:04;;;;;;;7.43;4.73;;;12.60;99.90;;;;;;5206543;27;20474;-63
2024/04/11 06:18:35;;;;;;;7.10;4.80;;;12.80;99.90;;;;;;5206847;27;20463;-64
2024/04/11 06:21:02;;;;;;;5.13;4.63;;;13.00;99.90;;;;;;5200574;27;20841;-62
2024/04/11 06:23:28;;;;;;;9.57;5.53;;;13.70;99.90;;;;;;5198249;27;20918;-62
2024/04/11 06:25:54;;;;;;;8.83;4.77;;;13.60;99.90;;;;;;5175355;27;20470;-62
2024/04/11 06:28:20;;;;;;;9.27;5.40;;;13.60;99.90;;;;;;5201935;27;20585;-62
2024/04/11 06:30:47;;;;;;;7.30;5.27;;;13.90;99.90;;;;;;5202715;27;20586;-63
2024/04/11 06:33:16;;;;;;;5.43;4.03;;;14.00;99.90;;;;;;5190188;27;20241;-63
2024/04/11 06:35:51;;;;;;;4.77;4.37;;;14.40;99.90;;;;;;5193147;27;20468;-64
2024/04/11 06:38:19;;;;;;;6.40;5.73;;;14.70;99.90;;;;;;5190703;27;20831;-64
2024/04/11 06:40:45;;;;;;;6.10;5.30;;;14.50;99.90;;;;;;5202594;27;20494;-62
2024/04/11 06:43:13;;;;;;;8.00;4.87;;;14.80;99.90;;;;;;5201800;27;20482;-69
2024/04/11 06:45:39;;;;;;;5.63;5.13;;;15.10;98.90;;;;;;5202775;27;20604;-62
2024/04/11 06:48:06;;;;;;;7.27;4.93;;;14.90;99.90;;;;;;5187496;27;20610;-62
2024/04/11 06:50:32;;;;;;;6.00;4.73;;;15.00;98.50;;;;;;5190459;27;20585;-63
2024/04/11 06:52:59;;;;;;;5.70;4.60;;;15.40;97.60;;;;;;5194384;27;20480;-62
2024/04/11 06:55:25;;;;;;;7.90;4.47;;;16.10;96.40;;;;;;5181829;27;20279;-63
2024/04/11 06:57:52;;;;;;;4.50;4.10;;;17.10;94.90;;;;;;5177435;27;20467;-61
2024/04/11 07:00:52;;;;;;;8.60;4.13;;;16.80;93.00;;;;;;5186665;27;20595;-62
2024/04/11 07:03:26;;;;;;;5.37;4.03;;;16.40;93.00;;;;;;5192103;27;20479;-62
2024/04/11 07:05:57;;;;;;;8.30;4.50;;;17.10;93.50;;;;;;5197355;27;21009;-63
2024/04/11 07:08:33;;;;;;;7.10;3.97;;;16.80;91.70;;;;;;5199190;27;21153;-63
2024/04/11 07:11:12;;;;;;;7.97;3.70;;;17.00;92.70;;;;;;5202303;27;20482;-62
2024/04/11 07:13:38;;;;;;;5.97;3.87;;;17.50;91.00;;;;;;5200833;27;20481;-63
2024/04/11 07:16:07;;;;;;;5.40;3.90;;;17.60;88.80;;;;;;5198670;27;20879;-64
2024/04/11 07:18:55;;;;;;;5.97;3.50;;;17.70;91.10;;;;;;5201061;27;20523;-63
2024/04/11 07:21:19;;;;;;;5.97;3.83;;;18.20;91.70;;;;;;5201339;27;20565;-63
2024/04/11 07:23:54;;;;;;;4.10;3.77;;;17.50;86.20;;;;;;5202305;27;20466;-62
2024/04/11 07:26:22;;;;;;;6.90;3.70;;;18.20;85.50;;;;;;5203629;27;20364;-63
2024/04/11 07:28:49;;;;;;;5.80;3.33;;;18.00;82.70;;;;;;5198450;27;20598;-63
2024/04/11 07:31:16;;;;;;;6.43;3.30;;;18.00;80.00;;;;;;5183656;27;20566;-62
2024/04/11 07:33:42;;;;;;;4.77;3.23;;;17.20;84.80;;;;;;5196051;27;20468;-63
2024/04/11 07:36:09;;;;;;;4.33;3.80;;;18.00;81.90;;;;;;5197260;27;20633;-63
2024/04/11 07:38:37;;;;;;;4.60;3.30;;;17.70;80.40;;;;;;5196708;27;20899;-63
2024/04/11 07:41:16;;;;;;;6.13;3.80;;;18.00;80.10;;;;;;5197378;27;21125;-63
2024/04/11 07:43:45;;;;;;;5.80;3.10;;;17.90;75.60;;;;;;5197625;27;20510;-63
2024/04/11 07:46:13;;;;;;;4.70;2.23;;;18.00;78.90;;;;;;5197193;27;20588;-64
2024/04/11 07:48:53;;;;;;;5.60;2.70;;;17.90;80.20;;;;;;5191700;27;20558;-64
2024/04/11 07:51:19;;;;;;;3.90;2.30;;;18.10;77.40;;;;;;5195052;27;20475;-63
2024/04/11 07:53:48;;;;;;;3.43;3.03;;;17.90;73.50;;;;;;5197568;27;20585;-63
2024/04/11 07:56:34;;;;;;;4.97;2.40;;;17.90;72.90;;;;;;5196743;27;20467;-62
2024/04/11 07:59:02;;;;;;;2.33;2.10;;;17.90;71.40;;;;;;5191392;27;20524;-63
2024/04/11 08:01:31;;;;;;;3.70;2.23;;;18.10;70.50;;;;;;5196726;27;20867;-63
2024/04/11 08:03:57;;;;;;;2.67;2.20;;;17.80;67.20;;;;;;5196602;27;20467;-63
2024/04/11 08:06:22;;;;;;;3.77;2.60;;;17.80;71.50;;;;;;5196175;27;20600;-63
2024/04/11 08:08:48;;;;;;;4.63;2.33;;;18.50;70.00;;;;;;5191006;27;20473;-63
2024/04/11 08:11:15;;;;;;;3.60;1.77;;;18.60;61.80;;;;;;5201796;27;20244;-62
2024/04/11 08:13:43;;;;;;;1.80;1.70;;;18.60;64.00;;;;;;5196577;27;20234;-64
2024/04/11 08:16:10;;;;;;;2.30;1.67;;;18.80;64.60;;;;;;5196478;27;20538;-63
2024/04/11 08:18:37;;;;;;;5.97;2.40;;;18.90;62.00;;;;;;5193360;27;20474;-63
2024/04/11 08:21:07;;;;;;;3.33;2.00;;;19.50;63.10;;;;;;5169220;27;20601;-62
2024/04/11 08:23:45;;;;;;;2.70;2.10;;;19.10;58.40;;;;;;5196489;27;21077;-63
2024/04/11 08:26:15;;;;;;;2.20;1.60;;;19.40;58.30;;;;;;5196258;27;20576;-63
2024/04/11 08:28:43;;;;;;;3.77;2.10;;;19.40;59.90;;;;;;5201074;27;20798;-63
2024/04/11 08:31:11;;;;;;;2.50;1.50;;;19.30;57.10;;;;;;5190830;27;20487;-63
2024/04/11 08:33:38;;;;;;;2.20;1.60;;;19.40;58.30;;;;;;5195442;27;20609;-64
2024/04/11 08:36:04;;;;;;;4.57;2.10;;;19.90;57.70;;;;;;5196502;27;20470;-64
2024/04/11 08:38:33;;;;;;;5.00;2.10;;;19.70;58.20;;;;;;5203542;27;20518;-64
2024/04/11 08:41:06;;;;;;;3.00;2.40;;;19.80;58.50;;;;;;5200575;27;20531;-64
2024/04/11 08:43:35;;;;;;;3.63;2.10;;;19.60;58.40;;;;;;5199028;27;20466;-64
2024/04/11 08:46:06;;;;;;;4.50;1.73;;;19.50;57.30;;;;;;5199041;27;20473;-64
2024/04/11 08:48:32;;;;;;;3.10;1.77;;;19.30;57.90;;;;;;5200185;27;20857;-64
2024/04/11 08:51:15;;;;;;;3.17;1.67;;;19.70;55.70;;;;;;5194343;27;20859;-64
2024/04/11 08:53:45;;;;;;;2.70;1.77;;;19.50;53.60;;;;;;5199440;27;20597;-63
2024/04/11 08:56:13;;;;;;;5.20;1.80;;;19.60;53.80;;;;;;5196845;27;21368;-64
2024/04/11 08:58:41;;;;;;;4.23;1.23;;;19.00;52.30;;;;;;5198715;27;20538;-64
2024/04/11 09:01:08;;;;;;;4.67;1.37;;;19.40;54.50;;;;;;5198750;27;20567;-63
2024/04/11 09:03:35;;;;;;;3.50;1.57;;;19.30;53.80;;;;;;5198828;27;20482;-64
2024/04/11 09:06:01;;;;;;;1.90;1.50;;;19.40;53.00;;;;;;5198758;27;20534;-64
2024/04/11 09:08:28;;;;;;;2.70;1.50;;;19.00;52.70;;;;;;5197803;27;20477;-64
2024/04/11 09:10:55;;;;;;;4.60;1.70;;;18.70;53.60;;;;;;5193225;27;20471;-63
2024/04/11 09:13:23;;;;;;;3.80;1.47;;;18.90;54.00;;;;;;5204752;27;20476;-64
2024/04/11 09:16:04;;;;;;;2.73;1.60;;;19.40;53.60;;;;;;5199270;27;20547;-64
2024/04/11 09:18:30;;;;;;;2.60;2.07;;;19.10;52.70;;;;;;5197279;27;20474;-63
2024/04/11 09:21:14;;;;;;;2.53;1.50;;;19.20;53.10;;;;;;5192940;27;20458;-63
2024/04/11 09:23:47;;;;;;;2.43;1.60;;;19.50;52.20;;;;;;5186439;27;20619;-63
2024/04/11 09:26:13;;;;;;;3.33;1.60;;;19.10;51.00;;;;;;5198212;27;20482;-64
2024/04/11 09:28:40;;;;;;;1.77;1.30;;;19.00;51.60;;;;;;5194029;27;20458;-70
2024/04/11 09:31:08;;;;;;;3.07;1.47;;;19.00;51.80;;;;;;5200914;27;20463;-63
2024/04/11 09:33:39;;;;;;;2.50;1.30;;;19.00;51.90;;;;;;5198555;27;21065;-64
2024/04/11 09:36:09;;;;;;;4.20;1.00;;;18.70;50.70;;;;;;5197368;27;20463;-63
2024/04/11 09:38:41;;;;;;;2.53;1.70;;;18.80;52.90;;;;;;5194959;27;20681;-63
2024/04/11 09:41:11;;;;;;;2.03;1.10;;;18.80;50.80;;;;;;5201152;27;20529;-63
2024/04/11 09:43:41;;;;;;;1.97;1.17;;;19.10;51.90;;;;;;5206720;27;20602;-63
2024/04/11 09:46:17;;;;;;;2.53;1.57;;;19.70;51.10;;;;;;5193041;27;21067;-64
2024/04/11 09:48:47;;;;;;;2.40;1.13;;;19.40;52.60;;;;;;5192070;27;20593;-63
2024/04/11 09:51:15;;;;;;;6.07;1.90;;;19.50;51.50;;;;;;5205832;27;20634;-63
2024/04/11 09:53:41;;;;;;;2.10;1.40;;;19.80;51.00;;;;;;5206858;27;20474;-63
2024/04/11 09:56:13;;;;;;;2.73;1.33;;;18.90;49.70;;;;;;5205539;27;20578;-63
2024/04/11 09:58:41;;;;;;;1.97;1.10;;;19.00;50.50;;;;;;5201147;27;20963;-63
2024/04/11 10:01:30;;;;;;;2.37;1.50;;;19.00;50.00;;;;;;5190525;27;20826;-63
2024/04/11 10:04:00;;;;;;;1.97;1.13;;;18.70;49.70;;;;;;5194159;27;20617;-63
2024/04/11 10:06:29;;;;;;;1.83;1.40;;;18.50;49.20;;;;;;5195290;27;20469;-62
2024/04/11 10:09:11;;;;;;;3.53;1.33;;;18.60;49.90;;;;;;5190199;27;20468;-62
2024/04/11 10:11:42;;;;;;;4.10;1.60;;;19.40;48.30;;;;;;5196674;27;20529;-61
2024/04/11 10:14:20;;;;;;;1.97;1.17;;;19.70;47.10;;;;;;5196353;27;20607;-63
2024/04/11 10:16:51;;;;;;;2.10;1.20;;;19.60;47.60;;;;;;5201051;27;20475;-62
2024/04/11 10:19:26;;;;;;;4.20;1.30;;;19.20;47.90;;;;;;5197637;27;20472;-62
2024/04/11 10:21:55;;;;;;;2.20;1.10;;;19.40;46.60;;;;;;5194413;27;20466;-62
2024/04/11 10:24:28;;;;;;;1.93;1.10;;;19.70;46.70;;;;;;5202314;27;20851;-63
2024/04/11 10:26:54;;;;;;;1.60;1.30;;;20.10;47.10;;;;;;5188087;27;20532;-62
2024/04/11 10:29:21;;;;;;;4.40;1.17;;;19.40;46.00;;;;;;5201870;27;20624;-63
2024/04/11 10:31:56;;;;;;;3.47;1.87;;;18.90;47.60;;;;;;5172653;27;20481;-63
2024/04/11 10:34:34;;;;;;;5.43;1.53;;;18.50;48.10;;;;;;5180501;27;20495;-63
2024/04/11 10:37:12;;;;;;;2.07;1.50;;;18.60;48.70;;;;;;5203191;27;20542;-63
2024/04/11 10:39:38;;;;;;;1.80;1.10;;;18.30;48.40;;;;;;5206511;27;20482;-63
2024/04/11 10:42:09;;;;;;;2.70;1.50;;;18.50;48.80;;;;;;5205791;27;20628;-63
2024/04/11 10:44:36;;;;;;;5.30;1.43;;;18.50;49.80;;;;;;5206385;27;20545;-62
2024/04/11 10:47:08;;;;;;;3.27;1.47;;;18.50;50.30;;;;;;5177108;27;20611;-62
2024/04/11 10:49:45;;;;;;;3.50;1.90;;;18.70;49.90;;;;;;5192566;27;20493;-63
2024/04/11 10:52:13;;;;;;;5.17;1.50;;;18.60;49.40;;;;;;5198584;27;20483;-63
2024/04/11 10:54:39;;;;;;;3.07;1.53;;;18.90;49.90;;;;;;5203962;27;20475;-63
2024/04/11 10:57:12;;;;;;;2.57;1.40;;;18.60;48.80;;;;;;5207208;27;21411;-63
2024/04/11 10:59:50;;;;;;;3.97;1.30;;;18.30;48.20;;;;;;5204304;27;20856;-63
2024/04/11 11:02:19;;;;;;;3.90;1.93;;;18.10;49.40;;;;;;5201718;27;20478;-63
2024/04/11 11:04:49;;;;;;;6.43;1.50;;;18.60;50.20;;;;;;5202371;27;21092;-64
2024/04/11 11:07:20;;;;;;;3.57;1.43;;;18.40;49.10;;;;;;5194903;27;20964;-63
2024/04/11 11:09:51;;;;;;;2.70;1.30;;;18.20;49.10;;;;;;5203422;27;20500;-64
2024/04/11 11:12:23;;;;;;;1.60;1.23;;;18.30;50.20;;;;;;5193768;27;20485;-64
2024/04/11 11:14:53;;;;;;;2.43;1.50;;;18.60;49.30;;;;;;5202295;27;20549;-64
2024/04/11 11:17:18;;;;;;;6.93;1.20;;;18.00;49.40;;;;;;5200362;27;20475;-64
2024/04/11 11:19:45;;;;;;;1.67;1.17;;;17.90;49.30;;;;;;5172950;27;20593;-64
2024/04/11 11:22:11;;;;;;;4.20;1.53;;;17.90;48.90;;;;;;5197627;27;20422;-64
2024/04/11 11:24:37;;;;;;;1.93;1.40;;;18.00;49.70;;;;;;5200889;27;20487;-64
2024/04/11 11:27:05;;;;;;;3.03;1.70;;;18.00;49.00;;;;;;5202218;27;20582;-63
2024/04/11 11:29:31;;;;;;;1.87;1.50;;;17.70;49.10;;;;;;5201108;27;20532;-63
2024/04/11 11:32:01;;;;;;;2.47;1.40;;;17.90;48.80;;;;;;5203962;27;20978;-63
2024/04/11 11:34:30;;;;;;;2.97;1.60;;;18.30;48.80;;;;;;5202071;27;20980;-63
2024/04/11 11:37:03;;;;;;;2.83;1.23;;;18.10;47.40;;;;;;5201587;27;20476;-64
2024/04/11 11:39:35;;;;;;;2.37;1.20;;;18.10;49.40;;;;;;5201021;27;20598;-64
2024/04/11 11:42:19;;;;;;;2.53;1.47;;;18.30;49.60;;;;;;5197671;27;20866;-64
2024/04/11 11:47:36;;;;;;;4.63;1.53;;;17.70;46.40;;;;;;5200624;27;20470;-64
2024/04/11 11:50:18;;;;;;;4.30;1.47;;;18.10;48.60;;;;;;5199510;27;20536;-64
2024/04/11 11:52:49;;;;;;;4.20;1.57;;;18.30;50.00;;;;;;5200818;27;20966;-64
2024/04/11 11:55:19;;;;;;;2.47;1.53;;;18.50;49.50;;;;;;5200891;27;20491;-63
2024/04/11 11:58:02;;;;;;;3.30;1.90;;;18.40;48.00;;;;;;5200507;27;20531;-64
2024/04/11 12:00:32;;;;;;;2.87;2.07;;;18.10;48.10;;;;;;5197263;27;20912;-63
2024/04/11 12:03:06;;;;;;;3.13;2.30;;;18.00;48.20;;;;;;5199991;27;20469;-64
2024/04/11 12:05:33;;;;;;;2.50;2.00;;;18.40;48.60;;;;;;5200356;27;20600;-64
2024/04/11 12:08:06;;;;;;;4.17;2.17;;;18.80;48.80;;;;;;5199461;27;20624;-63
2024/04/11 12:13:42;;;;;;;1.90;1.60;;;18.40;47.70;;;;;;5197896;27;20614;-64
2024/04/11 12:16:08;;;;;;;4.30;1.50;;;18.40;47.90;;;;;;5201020;27;20604;-63
2024/04/11 12:18:34;;;;;;;3.13;2.30;;;18.40;49.10;;;;;;5200920;27;20482;-64
2024/04/11 12:21:02;;;;;;;1.77;1.63;;;18.20;47.70;;;;;;5203493;27;21082;-63
2024/04/11 12:23:27;;;;;;;2.87;1.70;;;18.60;50.80;;;;;;5203212;27;20536;-63
2024/04/11 12:25:55;;;;;;;3.73;1.77;;;18.50;48.00;;;;;;5203433;27;20464;-63
2024/04/11 12:28:22;;;;;;;2.50;1.23;;;18.40;48.10;;;;;;5203282;27;20714;-64
2024/04/11 12:30:51;;;;;;;5.70;1.70;;;18.50;48.90;;;;;;5199292;27;20520;-63
2024/04/11 12:33:16;;;;;;;5.10;1.67;;;18.50;48.60;;;;;;5198491;27;20610;-62
2024/04/11 12:35:55;;;;;;;2.90;1.27;;;18.40;49.30;;;;;;5202381;27;20467;-63
2024/04/11 12:38:26;;;;;;;2.50;1.33;;;18.40;48.70;;;;;;5198379;27;20320;-63
2024/04/11 12:40:51;;;;;;;2.17;1.43;;;18.40;49.40;;;;;;5206399;27;21156;-63
2024/04/11 12:43:18;;;;;;;1.93;1.27;;;18.40;49.60;;;;;;5202944;27;20468;-63
2024/04/11 12:45:53;;;;;;;5.30;1.80;;;18.30;49.80;;;;;;5202145;27;20228;-62
2024/04/11 12:48:20;;;;;;;2.43;1.30;;;18.20;49.20;;;;;;5197717;27;20469;-64
2024/04/11 12:50:50;;;;;;;1.63;1.30;;;18.10;48.80;;;;;;5202871;27;20492;-62
2024/04/11 12:53:21;;;;;;;5.53;1.63;;;18.50;49.60;;;;;;5202433;27;20473;-63
2024/04/11 12:55:55;;;;;;;4.90;1.90;;;18.40;49.20;;;;;;5202791;27;20543;-63
2024/04/11 12:58:25;;;;;;;2.23;2.03;;;18.70;50.30;;;;;;5196737;27;21008;-62
2024/04/11 13:00:57;;;;;;;2.43;1.70;;;18.50;49.70;;;;;;5202161;27;20476;-63
2024/04/11 13:03:34;;;;;;;1.40;1.30;;;18.40;49.20;;;;;;5202215;27;21119;-63
2024/04/11 13:06:07;;;;;;;5.43;1.67;;;18.50;50.50;;;;;;5200799;27;20467;-63